createdAt,value
2023-01-18T00:01:06.685Z,-1.45
2023-01-18T00:03:33.820Z,-1.46
2023-01-18T00:06:01.700Z,-1.54
2023-01-18T00:08:29.559Z,-1.38
2023-01-18T00:11:09.023Z,-1.15
2023-01-18T00:13:35.945Z,-1.25
2023-01-18T00:16:06.606Z,-0.93
2023-01-18T00:18:35.954Z,-1.29
2023-01-18T00:21:03.662Z,-1.57
2023-01-18T00:23:30.262Z,-1.59
2023-01-18T00:26:03.932Z,-1.47
2023-01-18T00:28:30.585Z,-1.15
2023-01-18T00:30:57.227Z,-1.42
2023-01-18T00:33:23.861Z,-1.55
2023-01-18T00:36:01.339Z,-1.63
2023-01-18T00:38:28.429Z,-1.27
2023-01-18T00:40:55.124Z,-1.33
2023-01-18T00:43:40.279Z,-1.27
2023-01-18T00:46:11.788Z,-1.29
2023-01-18T00:48:41.376Z,-1.28
2023-01-18T00:51:09.166Z,-1.16
2023-01-18T00:53:35.964Z,-1.07
2023-01-18T00:56:02.616Z,-1.10
2023-01-18T00:58:29.227Z,-1.27
2023-01-18T01:00:55.905Z,-1.05
2023-01-18T01:03:22.612Z,-1.23
2023-01-18T01:06:07.963Z,-1.47
2023-01-18T01:08:34.846Z,-1.30
2023-01-18T01:11:06.700Z,-1.69
2023-01-18T01:13:51.770Z,-1.92
2023-01-18T01:16:37.188Z,-2.05
2023-01-18T01:19:22.136Z,-1.78
2023-01-18T01:22:07.152Z,-1.82
2023-01-18T01:24:52.102Z,-1.72
2023-01-18T01:27:18.707Z,-1.80
2023-01-18T01:29:45.392Z,-1.58
2023-01-18T01:32:12.074Z,-1.28
2023-01-18T01:34:38.696Z,-1.11
2023-01-18T01:37:05.608Z,-1.31
2023-01-18T01:39:32.196Z,-1.46
2023-01-18T01:41:58.849Z,-1.28
2023-01-18T01:44:28.103Z,-1.16
2023-01-18T01:47:00.145Z,-1.22
2023-01-18T01:49:32.295Z,-1.05
2023-01-18T01:52:02.551Z,-1.01
2023-01-18T01:54:38.220Z,-0.60
2023-01-18T01:57:07.303Z,0.03
2023-01-18T01:59:34.565Z,0.13
2023-01-18T02:02:01.290Z,-0.10
2023-01-18T02:04:27.974Z,-0.41
2023-01-18T02:06:54.583Z,-0.43
2023-01-18T02:09:23.291Z,-0.59
2023-01-18T02:11:53.565Z,-0.89
2023-01-18T02:14:20.614Z,-1.06
2023-01-18T02:16:59.334Z,-0.65
2023-01-18T02:19:46.146Z,-0.58
2023-01-18T02:22:46.313Z,-0.44
2023-01-18T02:25:57.765Z,-0.19
2023-01-18T02:28:26.326Z,-0.44
2023-01-18T02:31:50.434Z,-0.44
2023-01-18T02:34:34.436Z,-0.66
2023-01-18T02:37:26.275Z,-0.76
2023-01-18T02:40:20.687Z,-0.46
2023-01-18T02:43:05.623Z,-0.46
2023-01-18T02:45:59.296Z,-0.68
2023-01-18T02:48:25.953Z,-0.83
2023-01-18T02:50:52.554Z,-0.76
2023-01-18T02:53:19.142Z,-0.56
2023-01-18T02:55:53.490Z,-0.59
2023-01-18T02:58:26.335Z,-0.61
2023-01-18T03:01:06.158Z,-0.52
2023-01-18T03:03:32.789Z,-0.61
2023-01-18T03:06:01.651Z,-0.55
2023-01-18T03:08:38.839Z,-0.58
2023-01-18T03:11:34.253Z,-1.12
2023-01-18T03:14:12.709Z,-0.88
2023-01-18T03:17:02.042Z,-1.34
2023-01-18T03:20:01.012Z,-1.03
2023-01-18T03:22:48.232Z,-1.16
2023-01-18T03:25:17.972Z,-0.54
2023-01-18T03:28:03.176Z,-0.60
2023-01-18T03:30:48.494Z,-0.62
2023-01-18T03:33:34.640Z,-0.70
2023-01-18T03:36:01.252Z,-0.77
2023-01-18T03:38:27.816Z,-0.86
2023-01-18T03:40:54.475Z,-0.65
2023-01-18T03:43:21.064Z,-0.79
2023-01-18T03:45:50.625Z,-1.19
2023-01-18T03:48:17.219Z,-1.14
2023-01-18T03:50:51.893Z,-0.85
2023-01-18T03:53:46.003Z,-1.02
2023-01-18T03:56:28.495Z,-1.13
2023-01-18T03:58:56.488Z,-1.04
2023-01-18T04:01:23.239Z,-1.08
2023-01-18T04:03:49.915Z,-0.87
2023-01-18T04:06:17.235Z,-0.94
2023-01-18T04:08:43.862Z,-0.80
2023-01-18T04:11:10.493Z,-0.92
2023-01-18T04:13:37.075Z,-0.99
2023-01-18T04:16:04.806Z,-1.01
2023-01-18T04:18:31.580Z,-0.90
2023-01-18T04:20:58.260Z,-0.69
2023-01-18T04:23:24.917Z,-0.53
2023-01-18T04:25:51.656Z,-0.23
2023-01-18T04:28:25.286Z,-0.38
2023-01-18T04:30:52.760Z,-0.41
2023-01-18T04:33:20.716Z,-0.41
2023-01-18T04:35:48.062Z,-0.38
2023-01-18T04:38:15.076Z,-0.57
2023-01-18T04:40:41.766Z,-0.90
2023-01-18T04:43:08.374Z,-0.62
2023-01-18T04:45:34.989Z,-0.62
2023-01-18T04:48:01.574Z,-0.49
2023-01-18T04:50:28.209Z,-0.87
2023-01-18T04:52:54.786Z,-1.22
2023-01-18T04:55:21.414Z,-1.17
2023-01-18T04:57:57.573Z,-1.01
2023-01-18T05:00:24.304Z,-0.73
2023-01-18T05:02:51.073Z,-0.41
2023-01-18T05:05:17.720Z,-0.38
2023-01-18T05:07:44.341Z,-0.81
2023-01-18T05:10:11.330Z,-1.19
2023-01-18T05:12:37.910Z,-0.69
2023-01-18T05:15:05.899Z,-0.80
2023-01-18T05:17:34.616Z,-0.62
2023-01-18T05:20:02.106Z,0.06
2023-01-18T05:22:29.238Z,-0.30
2023-01-18T05:24:55.993Z,0.31
2023-01-18T05:27:22.618Z,0.02
2023-01-18T05:29:49.222Z,-0.33
2023-01-18T05:32:15.912Z,0.11
2023-01-18T05:34:42.526Z,-0.40
2023-01-18T05:37:09.185Z,-0.40
2023-01-18T05:39:35.775Z,0.01
2023-01-18T05:42:02.429Z,-0.64
2023-01-18T05:44:29.035Z,-1.00
2023-01-18T05:46:55.883Z,-0.82
2023-01-18T05:49:22.966Z,-0.55
2023-01-18T05:51:49.615Z,-0.50
2023-01-18T05:54:16.236Z,-0.03
2023-01-18T05:56:42.896Z,-0.17
2023-01-18T05:59:09.502Z,-0.19
2023-01-18T06:01:36.189Z,0.04
2023-01-18T06:04:02.845Z,0.01
2023-01-18T06:06:29.492Z,-0.03
2023-01-18T06:08:56.140Z,-0.11
2023-01-18T06:11:22.797Z,-0.22
2023-01-18T06:13:49.405Z,-0.33
2023-01-18T06:16:16.026Z,-0.39
2023-01-18T06:18:42.687Z,-0.24
2023-01-18T06:21:10.851Z,-0.15
2023-01-18T06:23:37.503Z,-0.09
2023-01-18T06:26:04.339Z,-0.11
2023-01-18T06:28:31.068Z,-0.14
2023-01-18T06:30:57.742Z,-0.02
2023-01-18T06:33:24.531Z,0.01
2023-01-18T06:35:51.255Z,0.05
2023-01-18T06:38:17.844Z,-0.04
2023-01-18T06:40:44.591Z,0.25
2023-01-18T06:43:14.071Z,0.31
2023-01-18T06:45:41.323Z,0.13
2023-01-18T06:48:08.014Z,0.13
2023-01-18T06:50:34.617Z,-0.02
2023-01-18T06:53:01.452Z,-0.95
2023-01-18T06:55:28.171Z,-1.16
2023-01-18T06:57:56.175Z,-1.24
2023-01-18T07:00:23.615Z,-1.23
2023-01-18T07:02:51.931Z,-0.93
2023-01-18T07:05:18.560Z,-0.46
2023-01-18T07:07:46.299Z,-0.26
2023-01-18T07:10:14.786Z,-0.44
2023-01-18T07:12:43.259Z,-0.17
2023-01-18T07:15:21.052Z,0.02
2023-01-18T07:17:50.447Z,0.06
2023-01-18T07:20:17.396Z,-0.60
2023-01-18T07:22:44.009Z,-0.82
2023-01-18T07:25:13.797Z,-0.62
2023-01-18T07:27:43.229Z,-0.68
2023-01-18T07:30:12.420Z,-0.84
2023-01-18T07:32:39.400Z,-0.38
2023-01-18T07:35:06.171Z,-0.32
2023-01-18T07:37:33.955Z,-0.28
2023-01-18T07:40:00.525Z,-0.30
2023-01-18T07:42:27.135Z,-0.49
2023-01-18T07:44:53.720Z,-0.58
2023-01-18T07:47:20.400Z,-0.72
2023-01-18T07:49:46.995Z,-0.39
2023-01-18T07:52:13.683Z,-0.19
2023-01-18T07:54:40.274Z,-0.83
2023-01-18T07:57:06.905Z,-0.87
2023-01-18T07:59:33.799Z,-0.73
2023-01-18T08:02:00.462Z,-0.09
2023-01-18T08:04:27.096Z,-0.49
2023-01-18T08:06:53.763Z,-0.67
2023-01-18T08:09:20.346Z,-0.74
2023-01-18T08:11:46.949Z,-0.39
2023-01-18T08:14:13.549Z,-0.62
2023-01-18T08:16:40.196Z,-0.90
2023-01-18T08:19:06.784Z,-0.73
2023-01-18T08:21:33.644Z,-0.89
2023-01-18T08:24:00.305Z,-1.06
2023-01-18T08:26:26.928Z,-1.00
2023-01-18T08:28:53.507Z,-0.71
2023-01-18T08:31:21.289Z,-0.91
2023-01-18T08:33:48.775Z,-1.02
2023-01-18T08:36:17.357Z,-0.96
2023-01-18T08:38:46.899Z,-0.72
2023-01-18T08:41:13.495Z,-1.07
2023-01-18T08:43:40.093Z,-1.04
2023-01-18T08:46:06.745Z,-0.80
2023-01-18T08:48:33.349Z,-0.87
2023-01-18T08:51:01.254Z,-0.79
2023-01-18T08:53:28.959Z,-0.63
2023-01-18T08:55:55.578Z,-0.43
2023-01-18T08:58:22.216Z,-0.46
2023-01-18T09:00:53.494Z,-0.43
2023-01-18T09:03:21.327Z,-0.41
2023-01-18T09:05:48.114Z,-0.58
2023-01-18T09:08:14.775Z,-0.58
2023-01-18T09:10:41.407Z,-0.52
2023-01-18T09:13:08.308Z,-0.30
2023-01-18T09:15:35.280Z,-0.19
2023-01-18T09:18:06.386Z,-0.31
2023-01-18T09:20:36.022Z,-0.44
2023-01-18T09:23:06.590Z,-0.34
2023-01-18T09:25:33.373Z,-0.48
2023-01-18T09:28:01.403Z,-0.09
2023-01-18T09:30:28.023Z,-0.09
2023-01-18T09:32:54.657Z,-0.69
2023-01-18T09:35:21.324Z,-0.72
2023-01-18T09:37:47.940Z,-0.16
2023-01-18T09:40:21.265Z,-0.25
2023-01-18T09:42:51.485Z,-0.08
2023-01-18T09:45:29.904Z,-0.25
2023-01-18T09:48:02.354Z,-0.25
2023-01-18T09:50:28.965Z,0.40
2023-01-18T09:53:23.533Z,-0.22
2023-01-18T09:55:54.266Z,0.11
2023-01-18T09:58:47.884Z,-0.60
2023-01-18T10:01:17.108Z,-0.03
2023-01-18T10:04:13.052Z,-0.15
2023-01-18T10:07:00.331Z,-0.45
2023-01-18T10:09:40.683Z,0.06
2023-01-18T10:12:27.108Z,-0.21
2023-01-18T10:15:17.675Z,-0.29
2023-01-18T10:17:44.604Z,-0.06
2023-01-18T10:20:29.695Z,0.39
2023-01-18T10:22:59.130Z,0.53
2023-01-18T10:25:37.618Z,0.06
2023-01-18T10:28:26.524Z,-0.41
2023-01-18T10:30:58.255Z,0.10
2023-01-18T10:33:29.314Z,0.34
2023-01-18T10:35:58.416Z,0.42
2023-01-18T10:38:26.090Z,0.08
2023-01-18T10:41:00.287Z,-0.41
2023-01-18T10:43:27.950Z,-0.58
2023-01-18T10:45:54.973Z,-0.38
2023-01-18T10:48:45.182Z,-0.16
2023-01-18T10:51:23.525Z,-0.56
2023-01-18T10:53:50.299Z,-0.49
2023-01-18T10:56:17.791Z,-0.17
2023-01-18T10:58:46.474Z,-0.30
2023-01-18T11:01:17.890Z,-0.40
2023-01-18T11:03:55.364Z,-0.16
2023-01-18T11:06:21.999Z,-0.11
2023-01-18T11:08:49.310Z,-0.12
2023-01-18T11:11:50.196Z,-0.17
2023-01-18T11:14:28.734Z,-0.19
2023-01-18T11:16:59.867Z,-0.03
2023-01-18T11:19:26.526Z,-0.06
2023-01-18T11:21:53.869Z,0.19
2023-01-18T11:24:28.313Z,0.41
2023-01-18T11:27:02.185Z,0.06
2023-01-18T11:29:42.745Z,0.10
2023-01-18T11:32:24.364Z,0.03
2023-01-18T11:34:55.353Z,-0.02
2023-01-18T11:37:35.743Z,0.11
2023-01-18T11:40:29.782Z,0.02
2023-01-18T11:43:14.537Z,-0.08
2023-01-18T11:45:46.402Z,-0.14
2023-01-18T11:48:24.137Z,-0.22
2023-01-18T11:51:07.348Z,-0.08
2023-01-18T11:53:58.129Z,-0.19
2023-01-18T11:56:40.898Z,-0.23
2023-01-18T11:59:33.660Z,0.20
2023-01-18T12:02:21.697Z,0.01
2023-01-18T12:04:54.241Z,0.10
2023-01-18T12:07:35.911Z,-0.24
2023-01-18T12:10:03.046Z,-0.09
2023-01-18T12:13:05.291Z,-0.21
2023-01-18T12:15:52.320Z,-0.43
2023-01-18T12:18:24.873Z,0.00
2023-01-18T12:21:03.843Z,0.14
2023-01-18T12:23:47.187Z,0.25
2023-01-18T12:26:32.477Z,0.11
2023-01-18T12:29:34.089Z,0.07
2023-01-18T12:32:03.324Z,0.14
2023-01-18T12:34:50.028Z,0.23
2023-01-18T12:37:26.355Z,0.13
2023-01-18T12:40:31.627Z,0.13
2023-01-18T12:43:10.192Z,0.17
2023-01-18T12:46:07.110Z,0.12
2023-01-18T12:48:51.832Z,0.04
2023-01-18T12:51:20.455Z,-0.02
2023-01-18T12:53:58.658Z,-0.03
2023-01-18T12:56:38.498Z,0.33
2023-01-18T12:59:07.786Z,0.05
2023-01-18T13:01:40.048Z,0.41
2023-01-18T13:04:12.995Z,0.47
2023-01-18T13:06:39.647Z,-0.14
2023-01-18T13:09:09.942Z,-0.03
2023-01-18T13:11:38.046Z,0.03
2023-01-18T13:14:13.626Z,-0.01
2023-01-18T13:17:06.272Z,0.01
2023-01-18T13:19:43.458Z,-0.01
2023-01-18T13:22:13.956Z,0.05
2023-01-18T13:24:47.258Z,-0.18
2023-01-18T13:27:15.563Z,-0.18
2023-01-18T13:29:42.319Z,-0.27
2023-01-18T13:32:29.711Z,0.02
2023-01-18T13:35:19.682Z,0.00
2023-01-18T13:37:50.560Z,-0.02
2023-01-18T13:40:25.640Z,-0.05
2023-01-18T13:42:52.260Z,0.06
2023-01-18T13:45:23.097Z,0.20
2023-01-18T13:48:14.838Z,-0.11
2023-01-18T13:50:42.318Z,0.07
2023-01-18T13:53:14.498Z,0.08
2023-01-18T13:55:48.682Z,-0.10
2023-01-18T13:58:26.494Z,-0.12
2023-01-18T14:00:54.132Z,-0.13
2023-01-18T14:03:25.255Z,-0.29
2023-01-18T14:05:52.628Z,-0.28
2023-01-18T14:08:20.931Z,-0.25
2023-01-18T14:10:53.194Z,0.11
2023-01-18T14:13:45.301Z,0.25
2023-01-18T14:16:16.965Z,0.24
2023-01-18T14:18:57.749Z,0.40
2023-01-18T14:21:26.976Z,0.52
2023-01-18T14:24:08.589Z,0.27
2023-01-18T14:26:36.095Z,0.25
2023-01-18T14:29:06.452Z,0.19
2023-01-18T14:31:34.762Z,0.51
2023-01-18T14:34:30.650Z,0.51
2023-01-18T14:36:57.678Z,0.29
2023-01-18T14:39:24.297Z,0.15
2023-01-18T14:41:55.449Z,0.56
2023-01-18T14:44:24.262Z,0.46
2023-01-18T14:46:52.375Z,0.47
2023-01-18T14:49:24.069Z,-0.08
2023-01-18T14:51:51.024Z,0.10
2023-01-18T14:54:17.715Z,0.05
2023-01-18T14:56:45.249Z,-0.29
2023-01-18T14:59:24.281Z,-0.01
2023-01-18T15:02:18.972Z,-0.21
2023-01-18T15:04:47.425Z,-0.29
2023-01-18T15:07:17.493Z,0.10
2023-01-18T15:09:44.577Z,0.03
2023-01-18T15:12:17.300Z,0.10
2023-01-18T15:14:45.280Z,0.13
2023-01-18T15:17:21.466Z,0.08
2023-01-18T15:19:59.697Z,-0.18
2023-01-18T15:22:34.286Z,-0.07
2023-01-18T15:25:01.237Z,0.01
2023-01-18T15:27:34.103Z,0.02
2023-01-18T15:30:01.310Z,-0.06
2023-01-18T15:32:30.016Z,0.20
2023-01-18T15:34:56.906Z,0.25
2023-01-18T15:37:25.381Z,-0.15
2023-01-18T15:39:58.883Z,0.05
2023-01-18T15:42:38.642Z,0.11
2023-01-18T15:45:06.927Z,0.11
2023-01-18T15:47:36.729Z,0.17
2023-01-18T15:50:05.360Z,-0.38
2023-01-18T15:52:43.943Z,-0.12
2023-01-18T15:55:32.558Z,-0.40
2023-01-18T15:58:05.639Z,-0.26
2023-01-18T16:00:56.541Z,-0.14
2023-01-18T16:03:28.564Z,-0.07
2023-01-18T16:06:06.943Z,0.11
2023-01-18T16:08:35.435Z,0.04
2023-01-18T16:11:02.080Z,-0.26
2023-01-18T16:13:32.530Z,-0.36
2023-01-18T16:16:15.445Z,-0.37
2023-01-18T16:18:47.748Z,-0.39
2023-01-18T16:21:40.462Z,-0.18
2023-01-18T16:24:19.983Z,-0.30
2023-01-18T16:26:46.881Z,-0.29
2023-01-18T16:29:13.551Z,-0.11
2023-01-18T16:31:42.548Z,-0.15
2023-01-18T16:34:23.852Z,-0.38
2023-01-18T16:36:51.463Z,-0.25
2023-01-18T16:39:18.833Z,-0.31
2023-01-18T16:41:51.435Z,-0.42
2023-01-18T16:44:18.082Z,-0.29
2023-01-18T16:46:45.599Z,-0.10
2023-01-18T16:49:13.214Z,-0.01
2023-01-18T16:51:40.714Z,0.02
2023-01-18T16:54:07.343Z,-0.30
2023-01-18T16:56:33.981Z,-0.21
2023-01-18T16:59:02.985Z,-0.34
2023-01-18T17:01:30.840Z,-0.37
2023-01-18T17:03:57.588Z,-0.40
2023-01-18T17:06:24.265Z,-0.31
2023-01-18T17:08:50.979Z,-0.56
2023-01-18T17:11:17.702Z,-0.49
2023-01-18T17:13:45.020Z,-0.32
2023-01-18T17:16:16.904Z,-0.45
2023-01-18T17:18:43.699Z,-0.40
2023-01-18T17:21:10.840Z,-0.62
2023-01-18T17:23:39.951Z,-0.28
2023-01-18T17:26:13.219Z,-0.41
2023-01-18T17:28:39.825Z,-0.48
2023-01-18T17:31:06.564Z,-0.14
2023-01-18T17:33:36.026Z,-0.17
2023-01-18T17:40:57.785Z,-0.09
2023-01-18T17:43:39.559Z,-0.20
2023-01-18T17:46:06.582Z,0.33
2023-01-18T17:48:33.457Z,-0.20
2023-01-18T17:51:00.122Z,-0.05
2023-01-18T17:53:26.807Z,0.32
2023-01-18T17:55:53.450Z,0.52
2023-01-18T17:58:20.139Z,0.11
2023-01-18T18:00:47.168Z,0.02
2023-01-18T18:03:13.968Z,0.05
2023-01-18T18:05:40.662Z,-0.05
2023-01-18T18:08:07.670Z,-0.17
2023-01-18T18:10:34.357Z,-0.15
2023-01-18T18:13:01.559Z,0.00
2023-01-18T18:15:28.482Z,0.09
2023-01-18T18:17:55.190Z,0.35
2023-01-18T18:20:23.015Z,0.09
2023-01-18T18:22:49.789Z,0.27
2023-01-18T18:25:16.388Z,0.04
2023-01-18T18:27:47.195Z,0.29
2023-01-18T18:30:14.938Z,0.27
2023-01-18T18:32:41.625Z,0.56
2023-01-18T18:35:23.904Z,0.13
2023-01-18T18:37:51.813Z,0.21
2023-01-18T18:40:19.305Z,0.10
2023-01-18T18:42:56.418Z,0.12
2023-01-18T18:45:27.288Z,0.47
2023-01-18T18:47:53.901Z,0.39
2023-01-18T18:50:20.518Z,0.00
2023-01-18T18:52:47.206Z,0.24
2023-01-18T18:55:13.897Z,-0.22
2023-01-18T18:57:40.628Z,-0.30
2023-01-18T19:00:07.916Z,-0.16
2023-01-18T19:02:34.947Z,-0.62
2023-01-18T19:05:01.634Z,-0.33
2023-01-18T19:07:28.353Z,-0.30
2023-01-18T19:09:55.036Z,-0.23
2023-01-18T19:12:22.007Z,-0.10
2023-01-18T19:14:49.037Z,-0.06
2023-01-18T19:17:25.225Z,-0.22
2023-01-18T19:19:55.760Z,-0.27
2023-01-18T19:22:22.403Z,-0.17
2023-01-18T19:24:49.410Z,-0.12
2023-01-18T19:27:16.584Z,-0.02
2023-01-18T19:29:43.353Z,-0.09
2023-01-18T19:32:10.321Z,-0.05
2023-01-18T19:34:38.566Z,-0.03
2023-01-18T19:37:05.592Z,-0.04
2023-01-18T19:39:34.746Z,-0.01
2023-01-18T19:42:02.114Z,0.07
2023-01-18T19:44:28.922Z,-0.07
2023-01-18T19:46:57.050Z,-0.03
2023-01-18T19:49:25.724Z,-0.06
2023-01-18T19:51:53.118Z,-0.19
2023-01-18T19:54:19.733Z,-0.31
2023-01-18T19:56:46.546Z,0.04
2023-01-18T19:59:14.713Z,0.08
2023-01-18T20:01:41.634Z,-0.30
2023-01-18T20:04:08.431Z,-0.28
2023-01-18T20:06:35.301Z,-0.12
2023-01-18T20:09:02.798Z,-0.56
2023-01-18T20:11:30.670Z,-0.74
2023-01-18T20:13:57.345Z,-0.81
2023-01-18T20:16:24.599Z,-0.96
2023-01-18T20:18:51.424Z,-0.85
2023-01-18T20:21:19.198Z,-0.72
2023-01-18T20:23:45.848Z,-0.69
2023-01-18T20:26:13.267Z,-1.07
2023-01-18T20:28:41.107Z,-0.93
2023-01-18T20:31:09.291Z,-0.95
2023-01-18T20:33:38.081Z,-1.44
2023-01-18T20:36:06.487Z,-1.37
2023-01-18T20:38:33.746Z,-1.05
2023-01-18T20:41:01.002Z,-1.24
2023-01-18T20:43:27.607Z,-0.98
2023-01-18T20:46:01.156Z,-1.17
2023-01-18T20:48:27.897Z,-1.14
2023-01-18T20:50:54.576Z,-0.92
2023-01-18T20:53:21.185Z,-1.11
2023-01-18T20:55:47.815Z,-0.78
2023-01-18T20:58:14.470Z,-0.75
2023-01-18T21:00:41.151Z,-0.50
2023-01-18T21:03:07.816Z,-0.99
2023-01-18T21:05:34.488Z,-1.09
2023-01-18T21:08:01.558Z,-1.44
2023-01-18T21:10:38.635Z,-1.88
2023-01-18T21:13:09.113Z,-1.80
2023-01-18T21:15:36.364Z,-2.32
2023-01-18T21:18:04.186Z,-2.28
2023-01-18T21:20:31.322Z,-1.72
2023-01-18T21:22:58.193Z,-1.68
2023-01-18T21:25:26.102Z,-2.09
2023-01-18T21:27:52.836Z,-2.74
2023-01-18T21:30:19.761Z,-3.13
2023-01-18T21:32:46.992Z,-3.41
2023-01-18T21:35:13.635Z,-3.36
2023-01-18T21:37:40.508Z,-3.54
2023-01-18T21:40:07.881Z,-3.28
2023-01-18T21:42:53.124Z,-2.99
2023-01-18T21:45:38.207Z,-3.04
2023-01-18T21:48:08.752Z,-2.71
2023-01-18T21:50:57.478Z,-3.54
2023-01-18T21:53:43.092Z,-3.46
2023-01-18T21:56:09.784Z,-3.52
2023-01-18T21:58:54.745Z,-3.23
2023-01-18T22:01:26.709Z,-3.21
2023-01-18T22:04:12.875Z,-3.21
2023-01-18T22:06:39.626Z,-3.29
2023-01-18T22:09:06.518Z,-3.86
2023-01-18T22:11:33.156Z,-4.45
2023-01-18T22:13:59.837Z,-4.56
2023-01-18T22:16:30.483Z,-4.41
2023-01-18T22:18:58.346Z,-4.59
2023-01-18T22:21:25.468Z,-4.10
2023-01-18T22:23:52.687Z,-3.92
2023-01-18T22:26:20.378Z,-3.86
2023-01-18T22:28:47.035Z,-4.31
2023-01-18T22:31:13.915Z,-4.52
2023-01-18T22:33:40.844Z,-4.43
2023-01-18T22:36:07.806Z,-4.65
2023-01-18T22:38:34.473Z,-4.97
2023-01-18T22:41:02.621Z,-4.94
2023-01-18T22:43:31.083Z,-5.10
2023-01-18T22:45:57.803Z,-5.47
2023-01-18T22:48:24.853Z,-5.42
2023-01-18T22:50:55.175Z,-5.55
2023-01-18T22:53:21.946Z,-5.60
2023-01-18T22:55:48.767Z,-5.59
2023-01-18T22:58:15.466Z,-5.73
2023-01-18T23:00:43.255Z,-5.60
2023-01-18T23:03:09.850Z,-5.65
2023-01-18T23:05:36.486Z,-5.59
2023-01-18T23:08:04.361Z,-5.52
2023-01-18T23:10:31.361Z,-5.06
2023-01-18T23:12:58.084Z,-4.99
2023-01-18T23:15:43.153Z,-5.27
2023-01-18T23:18:09.775Z,-5.74
2023-01-18T23:20:36.642Z,-5.93
2023-01-18T23:23:03.895Z,-6.19
2023-01-18T23:25:32.188Z,-6.00
2023-01-18T23:28:03.258Z,-6.12
2023-01-18T23:30:30.822Z,-6.25
2023-01-18T23:32:57.440Z,-6.35
2023-01-18T23:35:24.054Z,-6.00
2023-01-18T23:37:50.658Z,-6.18
2023-01-18T23:40:36.110Z,-5.98
2023-01-18T23:43:21.295Z,-6.21
2023-01-18T23:46:06.604Z,-6.14
2023-01-18T23:48:51.640Z,-6.25
2023-01-18T23:51:36.561Z,-6.52
2023-01-18T23:54:18.591Z,-5.98
2023-01-18T23:56:45.821Z,-5.80
2023-01-18T23:59:12.507Z,-6.22
